Time;durP1;ratioP1;P1;durP2;ratioP2;P2;SDS_P1;SDS_P2;PMS_P1;PMS_P2;Temp;Humidity;BMP_temperature;BMP_pressure;BME280_temperature;BME280_humidity;BME280_pressure;Samples;Min_cycle;Max_cycle;Signal;HPM_P1;HPM_P2
2023/08/10 00:01:24;;;;;;;;;;;;;;;13.49;96.12;102120.63;5097734;28;20021;-43
2023/08/10 00:03:49;;;;;;;;;;;;;;;13.51;95.41;102129.28;5098988;28;19920;-43
2023/08/10 00:06:14;;;;;;;;;;;;;;;13.53;96.04;102121.59;5094151;28;20358;-44
2023/08/10 00:08:40;;;;;;;;;;;;;;;13.56;96.24;102126.88;5095279;28;20449;-44
2023/08/10 00:11:06;;;;;;;;;;;;;;;13.58;97.08;102132.97;5098151;28;19959;-43
2023/08/10 00:13:31;;;;;;;;;;;;;;;13.61;96.96;102140.84;5093469;28;19930;-41
2023/08/10 00:15:57;;;;;;;;;;;;;;;13.60;97.13;102131.34;5098525;28;19924;-42
2023/08/10 00:18:22;;;;;;;;;;;;;;;13.59;96.77;102116.63;5096937;28;19942;-43
2023/08/10 00:20:48;;;;;;;;;;;;;;;13.61;97.04;102126.22;5099471;28;20297;-42
2023/08/10 00:23:13;;;;;;;;;;;;;;;13.61;97.30;102125.34;5098380;28;20010;-42
2023/08/10 00:25:38;;;;;;;;;;;;;;;13.62;97.36;102127.09;5097305;28;19972;-44
2023/08/10 00:28:04;;;;;;;;;;;;;;;13.61;97.79;102126.22;5077430;28;20015;-43
2023/08/10 00:30:30;;;;;;;;;;;;;;;13.61;97.81;102128.81;5096086;28;19920;-44
2023/08/10 00:32:55;;;;;;;;;;;;;;;13.62;98.00;102127.97;5092435;28;20427;-43
2023/08/10 00:35:20;;;;;;;;;;;;;;;13.61;98.55;102130.50;5097429;28;19915;-42
2023/08/10 00:37:46;;;;;;;;;;;;;;;13.62;99.56;102124.50;5097253;28;19939;-43
2023/08/10 00:40:12;;;;;;;;;;;;;;;13.65;100.00;102122.03;5097560;28;19945;-43
2023/08/10 00:42:38;;;;;;;;;;;;;;;13.66;99.05;102123.81;5096415;28;19920;-43
2023/08/10 00:45:03;;;;;;;;;;;;;;;13.70;98.84;102123.06;5096134;28;20940;-42
2023/08/10 00:47:28;;;;;;;;;;;;;;;13.73;99.50;102127.50;5094282;28;19977;-43
2023/08/10 00:49:54;;;;;;;;;;;;;;;13.74;99.88;102121.47;5095312;28;19928;-43
2023/08/10 00:52:19;;;;;;;;;;;;;;;13.77;100.00;102122.47;5093755;28;19920;-43
2023/08/10 00:54:45;;;;;;;;;;;;;;;13.78;100.00;102118.19;5093903;28;19923;-44
2023/08/10 00:57:10;;;;;;;;;;;;;;;13.80;100.00;102126.88;5100882;27;19930;-44
2023/08/10 00:59:37;;;;;;;;;;;;;;;13.82;100.00;102120.91;5100920;27;19924;-42
2023/08/10 01:02:03;;;;;;;;;;;;;;;13.82;99.59;102118.31;5099535;27;19950;-42
2023/08/10 01:04:28;;;;;;;;;;;;;;;13.84;100.00;102119.28;5098810;27;20777;-42
2023/08/10 01:07:05;;;;;;;;;;;;;;;13.85;100.00;102122.75;5098572;28;19923;-43
2023/08/10 01:09:42;;;;;;;;;;;;;;;13.85;100.00;102121.03;5103170;27;19922;-42
2023/08/10 01:12:12;;;;;;;;;;;;;;;13.87;100.00;102121.06;5096308;27;20305;-42
2023/08/10 01:15:16;;;;;;;;;;;;;;;13.87;100.00;102121.97;5097868;27;19930;-42
2023/08/10 01:17:47;;;;;;;;;;;;;;;13.88;100.00;102126.28;5010120;28;19922;-42
2023/08/10 01:20:13;;;;;;;;;;;;;;;13.90;100.00;102132.41;5012016;28;19972;-42
2023/08/10 01:22:50;;;;;;;;;;;;;;;13.90;100.00;102123.78;5051044;28;19923;-44
2023/08/10 01:25:16;;;;;;;;;;;;;;;13.88;100.00;102123.72;5099342;27;20009;-43
2023/08/10 01:27:41;;;;;;;;;;;;;;;13.90;100.00;102129.84;5098532;28;20012;-42
2023/08/10 01:30:08;;;;;;;;;;;;;;;13.90;100.00;102135.00;5102519;27;19966;-43
2023/08/10 01:32:33;;;;;;;;;;;;;;;13.89;100.00;102137.50;5095937;27;19920;-42
2023/08/10 01:35:05;;;;;;;;;;;;;;;13.88;100.00;102135.75;5099610;27;19924;-43
2023/08/10 01:37:31;;;;;;;;;;;;;;;13.86;100.00;102132.25;5099252;27;19931;-44
2023/08/10 01:39:56;;;;;;;;;;;;;;;13.84;100.00;102133.91;5098566;27;20297;-42
2023/08/10 01:42:22;;;;;;;;;;;;;;;13.82;100.00;102132.97;5078878;28;19924;-43
2023/08/10 01:44:48;;;;;;;;;;;;;;;13.78;100.00;102133.69;5096669;28;19958;-42
2023/08/10 01:47:26;;;;;;;;;;;;;;;13.74;100.00;102137.00;5093226;27;19963;-42
2023/08/10 01:49:54;;;;;;;;;;;;;;;13.68;100.00;102135.94;5099209;27;19971;-42
2023/08/10 01:52:22;;;;;;;;;;;;;;;13.61;100.00;102130.50;5098682;27;19919;-43
2023/08/10 01:54:48;;;;;;;;;;;;;;;13.57;100.00;102136.38;5103072;27;19923;-42
2023/08/10 01:57:13;;;;;;;;;;;;;;;13.49;100.00;102132.66;5098589;27;19920;-43
2023/08/10 01:59:39;;;;;;;;;;;;;;;13.39;100.00;102127.13;5100207;27;19939;-41
2023/08/10 02:02:04;;;;;;;;;;;;;;;13.31;100.00;102130.28;5100080;27;20044;-43
2023/08/10 02:04:29;;;;;;;;;;;;;;;13.24;100.00;102124.00;5097677;27;19920;-43
2023/08/10 02:06:54;;;;;;;;;;;;;;;13.20;100.00;102124.66;5100046;27;19970;-42
2023/08/10 02:09:20;;;;;;;;;;;;;;;13.17;100.00;102129.75;5080377;28;20393;-43
2023/08/10 02:11:45;;;;;;;;;;;;;;;13.12;100.00;102131.25;5083486;28;20392;-42
2023/08/10 02:14:10;;;;;;;;;;;;;;;13.06;100.00;102125.88;5101008;27;19923;-44
2023/08/10 02:16:35;;;;;;;;;;;;;;;13.00;100.00;102128.22;5102135;27;20392;-44
2023/08/10 02:19:01;;;;;;;;;;;;;;;12.95;100.00;102122.88;5098164;27;19919;-44
2023/08/10 02:21:26;;;;;;;;;;;;;;;12.89;100.00;102128.66;5098912;27;20002;-42
2023/08/10 02:23:52;;;;;;;;;;;;;;;12.84;100.00;102126.72;5098529;28;19923;-43
2023/08/10 02:26:18;;;;;;;;;;;;;;;12.80;100.00;102133.50;5083516;28;19970;-42
2023/08/10 02:28:43;;;;;;;;;;;;;;;12.75;100.00;102135.00;5098241;28;19961;-43
2023/08/10 02:31:08;;;;;;;;;;;;;;;12.71;100.00;102137.41;5100263;28;19923;-43
2023/08/10 02:33:34;;;;;;;;;;;;;;;12.69;100.00;102139.06;5080987;28;20367;-41
2023/08/10 02:35:59;;;;;;;;;;;;;;;12.67;100.00;102144.13;5071008;28;19935;-43
2023/08/10 02:38:24;;;;;;;;;;;;;;;12.67;100.00;102132.94;5099262;28;19932;-42
2023/08/10 02:40:50;;;;;;;;;;;;;;;12.66;100.00;102141.50;5081506;28;19935;-43
2023/08/10 02:43:15;;;;;;;;;;;;;;;12.63;100.00;102141.38;5071030;28;19946;-44
2023/08/10 02:45:40;;;;;;;;;;;;;;;12.58;100.00;102134.34;5099247;28;19920;-43
2023/08/10 02:48:06;;;;;;;;;;;;;;;12.55;100.00;102143.63;5098861;28;19915;-43
2023/08/10 02:50:31;;;;;;;;;;;;;;;12.54;100.00;102147.03;5084444;28;19928;-44
2023/08/10 02:52:56;;;;;;;;;;;;;;;12.47;100.00;102145.91;5096253;27;19945;-44
2023/08/10 02:55:22;;;;;;;;;;;;;;;12.43;100.00;102148.31;5083891;28;20006;-46
2023/08/10 02:57:47;;;;;;;;;;;;;;;12.39;100.00;102146.44;5096496;28;21471;-45
2023/08/10 03:00:13;;;;;;;;;;;;;;;12.34;100.00;102147.13;5097148;27;19968;-46
2023/08/10 03:02:38;;;;;;;;;;;;;;;12.32;100.00;102151.34;5097560;27;19986;-45
2023/08/10 03:05:05;;;;;;;;;;;;;;;12.32;100.00;102150.47;5098430;28;19920;-43
2023/08/10 03:07:31;;;;;;;;;;;;;;;12.30;100.00;102152.94;5096924;28;20339;-43
2023/08/10 03:09:56;;;;;;;;;;;;;;;12.27;100.00;102151.97;5095602;27;20382;-43
2023/08/10 03:12:21;;;;;;;;;;;;;;;12.26;100.00;102157.94;5097231;27;19920;-43
2023/08/10 03:14:47;;;;;;;;;;;;;;;12.27;100.00;102162.28;5103528;27;19932;-44
2023/08/10 03:17:12;;;;;;;;;;;;;;;12.27;100.00;102160.56;5097690;27;19935;-42
2023/08/10 03:19:38;;;;;;;;;;;;;;;12.30;100.00;102168.44;5099584;27;19924;-43
2023/08/10 03:22:03;;;;;;;;;;;;;;;12.32;100.00;102171.97;5098174;28;20041;-42
2023/08/10 03:24:28;;;;;;;;;;;;;;;12.33;100.00;102167.69;5101332;27;20301;-45
2023/08/10 03:26:53;;;;;;;;;;;;;;;12.34;100.00;102167.75;5095686;27;20000;-44
2023/08/10 03:29:19;;;;;;;;;;;;;;;12.35;100.00;102166.94;5098972;27;20049;-43
2023/08/10 03:31:44;;;;;;;;;;;;;;;12.38;100.00;102170.44;5096632;27;20926;-45
2023/08/10 03:34:09;;;;;;;;;;;;;;;12.35;100.00;102161.78;5099693;28;19968;-44
2023/08/10 03:36:35;;;;;;;;;;;;;;;12.39;100.00;102161.91;5097844;27;20385;-43
2023/08/10 03:39:00;;;;;;;;;;;;;;;12.38;100.00;102157.53;5095368;27;21010;-44
2023/08/10 03:41:25;;;;;;;;;;;;;;;12.38;100.00;102153.28;5093630;27;20054;-43
2023/08/10 03:43:51;;;;;;;;;;;;;;;12.36;100.00;102160.06;5101871;27;19923;-43
2023/08/10 03:46:16;;;;;;;;;;;;;;;12.37;100.00;102159.25;5092383;27;19965;-43
2023/08/10 03:48:41;;;;;;;;;;;;;;;12.36;100.00;102154.91;5095099;28;19915;-42
2023/08/10 03:51:07;;;;;;;;;;;;;;;12.38;100.00;102161.03;5091441;28;19961;-42
2023/08/10 03:53:32;;;;;;;;;;;;;;;12.38;100.00;102163.63;5100600;27;20301;-43
2023/08/10 03:55:57;;;;;;;;;;;;;;;12.36;100.00;102160.06;5093930;28;20002;-48
2023/08/10 03:58:23;;;;;;;;;;;;;;;12.33;100.00;102158.25;5097464;28;19920;-43
2023/08/10 04:00:48;;;;;;;;;;;;;;;12.31;100.00;102159.00;5094288;27;19924;-43
2023/08/10 04:03:15;;;;;;;;;;;;;;;12.28;100.00;102158.88;5093769;28;20012;-44
2023/08/10 04:05:41;;;;;;;;;;;;;;;12.26;100.00;102155.38;5094994;28;19916;-43
2023/08/10 04:08:08;;;;;;;;;;;;;;;12.26;100.00;102165.69;5094032;28;19923;-44
2023/08/10 04:10:34;;;;;;;;;;;;;;;12.25;100.00;102162.19;5094677;28;19941;-47
2023/08/10 04:12:59;;;;;;;;;;;;;;;12.23;100.00;102170.69;5094317;28;20377;-43
2023/08/10 04:15:25;;;;;;;;;;;;;;;12.24;100.00;102168.16;5096800;28;19924;-43
2023/08/10 04:17:50;;;;;;;;;;;;;;;12.24;100.00;102173.34;5096443;28;19927;-43
2023/08/10 04:20:15;;;;;;;;;;;;;;;12.26;100.00;102174.28;5098794;28;19923;-45
2023/08/10 04:22:41;;;;;;;;;;;;;;;12.24;100.00;102178.50;5092265;28;19924;-47
2023/08/10 04:25:07;;;;;;;;;;;;;;;12.24;100.00;102182.78;5096709;28;19920;-43
2023/08/10 04:27:35;;;;;;;;;;;;;;;12.24;100.00;102175.03;5094024;28;19935;-44
2023/08/10 04:30:03;;;;;;;;;;;;;;;12.22;100.00;102174.97;5098978;27;20631;-47
2023/08/10 04:32:28;;;;;;;;;;;;;;;12.21;100.00;102173.22;5098857;28;19931;-45
2023/08/10 04:34:53;;;;;;;;;;;;;;;12.18;100.00;102179.94;5099588;27;19928;-45
2023/08/10 04:37:18;;;;;;;;;;;;;;;12.17;100.00;102175.59;5103510;27;20581;-44
2023/08/10 04:39:44;;;;;;;;;;;;;;;12.16;100.00;102181.56;5106198;27;19928;-46
2023/08/10 04:42:10;;;;;;;;;;;;;;;12.17;100.00;102180.75;5101873;27;19920;-44
2023/08/10 04:44:35;;;;;;;;;;;;;;;12.20;100.00;102191.22;5103309;27;19935;-45
2023/08/10 04:47:00;;;;;;;;;;;;;;;12.20;100.00;102183.47;5096935;28;20761;-44
2023/08/10 04:49:28;;;;;;;;;;;;;;;12.19;100.00;102190.31;5097249;28;19924;-44
2023/08/10 04:51:53;;;;;;;;;;;;;;;12.19;100.00;102192.88;5101050;27;19935;-43
2023/08/10 04:54:18;;;;;;;;;;;;;;;12.20;100.00;102189.50;5102342;27;19928;-44
2023/08/10 04:56:44;;;;;;;;;;;;;;;12.20;100.00;102194.66;5094367;28;20590;-51
2023/08/10 04:59:09;;;;;;;;;;;;;;;12.23;100.00;102197.38;5099237;27;21015;-48
2023/08/10 05:01:34;;;;;;;;;;;;;;;12.26;100.00;102199.22;5101569;27;20405;-50
2023/08/10 05:04:00;;;;;;;;;;;;;;;12.31;100.00;102198.56;5099052;27;20020;-51
2023/08/10 05:06:25;;;;;;;;;;;;;;;12.37;100.00;102195.34;5099412;27;20291;-50
2023/08/10 05:08:50;;;;;;;;;;;;;;;12.44;100.00;102194.81;5101992;27;20002;-48
2023/08/10 05:11:16;;;;;;;;;;;;;;;12.50;100.00;102195.06;5100348;27;19974;-50
2023/08/10 05:13:41;;;;;;;;;;;;;;;12.54;100.00;102194.38;5100069;27;19919;-49
2023/08/10 05:16:07;;;;;;;;;;;;;;;12.59;100.00;102199.72;5097272;28;19920;-48
2023/08/10 05:18:33;;;;;;;;;;;;;;;12.60;100.00;102196.31;5100991;27;19924;-47
2023/08/10 05:20:59;;;;;;;;;;;;;;;12.63;100.00;102193.00;5097643;28;19916;-49
2023/08/10 05:23:24;;;;;;;;;;;;;;;12.67;100.00;102190.56;5101516;27;19924;-50
2023/08/10 05:25:50;;;;;;;;;;;;;;;12.74;100.00;102187.44;5091903;28;19924;-48
2023/08/10 05:28:15;;;;;;;;;;;;;;;12.85;100.00;102195.59;5099907;27;19927;-48
2023/08/10 05:30:40;;;;;;;;;;;;;;;12.92;100.00;102195.03;5098477;27;20389;-48
2023/08/10 05:33:06;;;;;;;;;;;;;;;13.03;100.00;102191.16;5100614;28;19951;-50
2023/08/10 05:35:31;;;;;;;;;;;;;;;13.13;100.00;102189.84;5098539;27;19924;-50
2023/08/10 05:37:56;;;;;;;;;;;;;;;13.36;100.00;102190.75;5099349;27;20485;-50
2023/08/10 05:40:22;;;;;;;;;;;;;;;13.84;100.00;102186.50;5087213;28;20011;-51
2023/08/10 05:42:47;;;;;;;;;;;;;;;14.46;100.00;102182.63;5098940;27;19951;-50
2023/08/10 05:45:19;;;;;;;;;;;;;;;15.00;100.00;102179.19;5097317;27;19924;-49
2023/08/10 05:47:45;;;;;;;;;;;;;;;15.49;100.00;102178.91;5101077;27;19931;-48
2023/08/10 05:50:10;;;;;;;;;;;;;;;15.88;100.00;102183.47;5099789;27;19921;-48
2023/08/10 05:52:35;;;;;;;;;;;;;;;16.04;100.00;102188.25;5099893;27;19926;-48
2023/08/10 05:55:01;;;;;;;;;;;;;;;15.84;100.00;102181.66;5100242;27;20473;-46
2023/08/10 05:57:26;;;;;;;;;;;;;;;15.66;100.00;102189.81;5099640;27;19919;-52
2023/08/10 05:59:51;;;;;;;;;;;;;;;15.50;100.00;102185.84;5096101;27;20010;-47
2023/08/10 06:02:16;;;;;;;;;;;;;;;15.42;100.00;102178.72;5101313;27;19924;-50
2023/08/10 06:04:42;;;;;;;;;;;;;;;15.33;100.00;102181.88;5100728;27;20006;-48
2023/08/10 06:07:07;;;;;;;;;;;;;;;15.29;100.00;102182.66;5098300;27;19969;-50
2023/08/10 06:09:33;;;;;;;;;;;;;;;15.28;100.00;102180.88;5103052;27;21422;-46
2023/08/10 06:11:58;;;;;;;;;;;;;;;15.35;100.00;102180.25;5098877;27;19921;-50
2023/08/10 06:14:24;;;;;;;;;;;;;;;15.46;100.00;102183.13;5101320;27;19924;-46
2023/08/10 06:16:50;;;;;;;;;;;;;;;15.54;100.00;102177.34;5096102;27;19935;-49
2023/08/10 06:19:15;;;;;;;;;;;;;;;15.67;100.00;102188.09;5098608;28;19958;-48
2023/08/10 06:21:40;;;;;;;;;;;;;;;15.86;100.00;102189.47;5097607;28;19935;-46
2023/08/10 06:24:08;;;;;;;;;;;;;;;16.02;100.00;102189.94;5096254;28;20006;-50
2023/08/10 06:26:34;;;;;;;;;;;;;;;16.18;100.00;102190.34;5097502;28;19916;-50
2023/08/10 06:28:59;;;;;;;;;;;;;;;16.31;100.00;102189.81;5097639;28;19928;-51
2023/08/10 06:31:24;;;;;;;;;;;;;;;16.42;100.00;102185.78;5097254;28;20310;-49
2023/08/10 06:33:49;;;;;;;;;;;;;;;16.50;100.00;102189.47;5096490;28;19920;-50
2023/08/10 06:36:15;;;;;;;;;;;;;;;16.51;100.00;102178.22;5097293;28;19963;-47
2023/08/10 06:38:40;;;;;;;;;;;;;;;16.48;100.00;102185.06;5094370;28;20534;-49
2023/08/10 06:41:05;;;;;;;;;;;;;;;16.44;100.00;102183.19;5097592;28;19980;-47
2023/08/10 06:43:30;;;;;;;;;;;;;;;16.45;100.00;102174.59;5096129;28;19969;-47
2023/08/10 06:45:56;;;;;;;;;;;;;;;16.63;100.00;102173.34;5098332;28;20382;-47
2023/08/10 06:48:21;;;;;;;;;;;;;;;17.01;100.00;102168.16;5098870;28;20285;-48
2023/08/10 06:50:46;;;;;;;;;;;;;;;17.46;100.00;102174.31;5098469;28;20340;-47
2023/08/10 06:53:11;;;;;;;;;;;;;;;17.87;99.56;102175.16;5095901;28;19924;-50
2023/08/10 06:55:38;;;;;;;;;;;;;;;18.33;97.56;102173.41;5097681;27;19928;-49
2023/08/10 06:58:03;;;;;;;;;;;;;;;18.72;95.02;102171.47;5097867;28;20035;-46
2023/08/10 07:00:29;;;;;;;;;;;;;;;19.02;91.34;102172.75;5094953;28;20002;-48
2023/08/10 07:02:54;;;;;;;;;;;;;;;19.26;92.43;102164.41;5096552;28;19932;-46
2023/08/10 07:05:21;;;;;;;;;;;;;;;19.42;96.02;102158.53;5097424;28;20381;-49
2023/08/10 07:07:46;;;;;;;;;;;;;;;19.55;94.76;102164.75;5098783;28;20386;-48
2023/08/10 07:10:12;;;;;;;;;;;;;;;19.66;88.03;102171.03;5084498;28;19930;-49
2023/08/10 07:12:37;;;;;;;;;;;;;;;19.84;89.43;102175.56;5096125;28;19923;-50
2023/08/10 07:15:03;;;;;;;;;;;;;;;20.07;89.42;102165.34;5099240;28;19947;-47
2023/08/10 07:17:28;;;;;;;;;;;;;;;20.12;85.43;102165.38;5095444;28;20036;-49
2023/08/10 07:19:54;;;;;;;;;;;;;;;20.23;84.05;102171.59;5098102;28;20317;-48
2023/08/10 07:22:19;;;;;;;;;;;;;;;20.38;87.68;102173.44;5089769;28;19934;-50
2023/08/10 07:24:44;;;;;;;;;;;;;;;20.48;79.13;102175.31;5104422;27;19928;-52
2023/08/10 07:27:10;;;;;;;;;;;;;;;20.65;81.06;102178.94;5103657;28;19927;-51
2023/08/10 07:29:35;;;;;;;;;;;;;;;20.70;82.99;102176.34;5106259;28;20492;-47
2023/08/10 07:32:01;;;;;;;;;;;;;;;20.70;82.86;102177.22;5102214;27;19941;-47
2023/08/10 07:34:27;;;;;;;;;;;;;;;20.81;82.35;102178.19;5106652;27;19928;-46
2023/08/10 07:36:53;;;;;;;;;;;;;;;20.85;78.89;102174.72;5110422;27;19931;-48
2023/08/10 07:39:18;;;;;;;;;;;;;;;21.05;79.39;102185.31;5106811;27;20247;-48
2023/08/10 07:41:43;;;;;;;;;;;;;;;21.11;76.21;102176.59;5091250;28;19973;-48
2023/08/10 07:44:08;;;;;;;;;;;;;;;21.07;76.07;102175.72;5102453;27;19935;-48
2023/08/10 07:46:34;;;;;;;;;;;;;;;21.04;73.37;102182.66;5102812;27;20393;-48
2023/08/10 07:48:59;;;;;;;;;;;;;;;21.04;71.35;102187.88;5103659;27;20016;-51
2023/08/10 07:51:24;;;;;;;;;;;;;;;21.09;65.49;102186.19;5109070;27;19919;-48
2023/08/10 07:53:50;;;;;;;;;;;;;;;20.99;69.98;102179.13;5104457;27;19966;-49
2023/08/10 07:56:15;;;;;;;;;;;;;;;20.84;67.63;102185.16;5111842;27;19998;-48
2023/08/10 07:58:40;;;;;;;;;;;;;;;20.85;62.53;102184.28;5106805;27;19932;-50
2023/08/10 08:01:09;;;;;;;;;;;;;;;20.85;71.05;102177.31;5112856;27;19923;-51
2023/08/10 08:03:34;;;;;;;;;;;;;;;20.87;62.98;102180.84;5106590;27;19935;-48
2023/08/10 08:06:00;;;;;;;;;;;;;;;20.93;65.92;102193.09;5105366;27;19927;-51
2023/08/10 08:08:25;;;;;;;;;;;;;;;21.00;61.92;102186.16;5113237;27;19931;-50
2023/08/10 08:10:50;;;;;;;;;;;;;;;21.12;65.08;102187.09;5097481;28;20022;-50
2023/08/10 08:13:15;;;;;;;;;;;;;;;21.32;65.66;102186.34;5107395;28;19928;-50
2023/08/10 08:15:43;;;;;;;;;;;;;;;21.33;64.82;102186.34;5105002;28;20302;-52
2023/08/10 08:18:27;;;;;;;;;;;;;;;21.31;62.25;102188.09;5109446;28;21831;-47
2023/08/10 08:20:52;;;;;;;;;;;;;;;21.33;59.36;102177.63;5101395;28;19925;-48
2023/08/10 08:23:17;;;;;;;;;;;;;;;21.40;63.90;102180.25;5091342;28;19920;-50
2023/08/10 08:25:43;;;;;;;;;;;;;;;21.58;61.07;102174.22;5102461;28;19967;-51
2023/08/10 08:28:08;;;;;;;;;;;;;;;21.80;64.68;102175.16;5104911;28;20290;-50
2023/08/10 08:30:33;;;;;;;;;;;;;;;21.94;59.21;102186.53;5108190;28;20027;-48
2023/08/10 08:32:58;;;;;;;;;;;;;;;22.03;60.38;102184.81;5100595;28;20014;-58
2023/08/10 08:35:25;;;;;;;;;;;;;;;22.19;61.86;102182.22;5114168;28;20395;-54
2023/08/10 08:37:50;;;;;;;;;;;;;;;22.30;61.04;102182.25;5113001;28;19936;-56
2023/08/10 08:40:16;;;;;;;;;;;;;;;22.42;60.11;102184.00;5111371;28;19924;-65
2023/08/10 08:42:41;;;;;;;;;;;;;;;22.37;59.90;102186.63;5107840;28;19923;-56
2023/08/10 08:45:07;;;;;;;;;;;;;;;22.32;55.39;102188.34;5105474;28;20007;-53
2023/08/10 08:47:32;;;;;;;;;;;;;;;22.20;60.65;102185.72;5112885;28;20374;-52
2023/08/10 08:49:57;;;;;;;;;;;;;;;22.18;61.06;102187.47;5103162;28;19915;-57
2023/08/10 08:52:23;;;;;;;;;;;;;;;22.22;57.53;102181.38;5096322;28;19959;-53
